Terminal Aerodrome Forecast
Issued by NWS Cleveland, OH

Home | Current Version | Previous Version | Graphics & Text | Print | Product List | Glossary On
Versions: 1 2 3 4 5 6 7 8 9 10 11 12 13 14 15 16 17
448
FTUS41 KCLE 192107 AAA
TAFCAK
TAF AMD
KCAK 192107Z 1921/2018 20012KT P6SM -SHRA VCTS OVC045CB
      TEMPO 1921/1923 2SM TSRA OVC030CB
     FM192300 22010KT P6SM VCSH OVC045
      TEMPO 1923/2001 3SM -SHRA OVC025
     FM200600 27007KT 5SM BR OVC007
     FM201300 33006KT P6SM BKN007
     FM201600 33006KT P6SM BKN015=

USA.gov is the U.S. government's official web portal to all federal, state and local government web resources and services.